Terminal Aerodrome Forecast
Issued by NWS

Home | Current Version | Previous Version | Text Only | Print | Product List | Glossary Off
Versions: 1 2 3 4 5 6 7 8 9 10 11 12 13 14 15 16 17 18 19

413
FTUS43 KMPX 171133
TAFRNH
TAF
KRNH 171133Z 1712/1812 14011G18KT P6SM BKN020 OVC050
     FM171400 15012G18KT 6SM -DZ BR OVC014
     FM171700 16009KT 2SM -RA BR OVC006
     FM180100 34006KT 5SM -DZ BR OVC008=

USA.gov is the U.S. government's official web portal to all federal, state and local government web resources and services.